Accueil
METAR-TAF:

METAR-TAF

Aéroports :

Aéroport international de Pékin-Capitale

Pékin, Chine

latitude: 39-56N, longitude: 116-17E, altitude: 55 m

Observation

Le bulletin a été fait il y a 14 minutes, à 18:30 UTC
Vent 10 kt de ouest/nord-ouest, variant entre ouest et nord/nord-ouest
Température -2°C
Humidité 39%
Pression 1031 hPa
Visibilité 10 km ou plus
pas de nuages en-dessous de 1500 mètres et pas de cumulonimbus.

METAR: ZBAA 161830Z 29005MPS 270V330 CAVOK M02/M14 Q1031 NOSIG

Heure: 02:44 (18:44 UTC)

Prévision

Le bulletin a été fait il y a 3 heures et 41 minutes, à 15:03 UTC
Prévision valable du 16 à 18 UTC au 17 à 18 UTC
Vent 8 kt de nord-ouest
Visibilité 10 km ou plus
pas de nuages en-dessous de 1500 mètres et pas de cumulonimbus.

TAF: ZBAA 161503Z 1618/1718 31004MPS CAVOK TX07/1707Z TNM04/1621Z

Observations et prévisions météorologiques de plus de 4000 aéroports (messages METAR et TAF).

Les stations disponibles sont représentées par des disques jaunes et rouges sur la carte.

Passer la souris dessus pour voir le nom de la station.

Cliquer dessus pour voir les observations et prévisions météorologiques.

Pour changer de carte: cliquez sur les boutons verts avec une croix noire pour zoomer, sur le bouton vert avec un tiret pour effectuer un zoom arrière, ou sur les flèches vertes pour les cartes adjacentes.


METAR-TAF: